Time;durP1;ratioP1;P1;durP2;ratioP2;P2;SDS_P1;SDS_P2;PMS_P1;PMS_P2;Temp;Humidity;BMP_temperature;BMP_pressure;BME280_temperature;BME280_humidity;BME280_pressure;Samples;Min_cycle;Max_cycle;Signal;HPM_P1;HPM_P2
2023/08/23 00:01:11;;;;;;;8.90;6.70;;;;;;;-148.88;100.00;-17125.47;4978028;28;20034;-72
2023/08/23 00:03:36;;;;;;;8.60;6.22;;;;;;;-148.88;100.00;-17125.47;4978239;28;20121;-72
2023/08/23 00:06:02;;;;;;;10.75;7.07;;;;;;;-148.88;100.00;-17125.47;4977980;28;20023;-72
2023/08/23 00:08:27;;;;;;;9.68;7.05;;;;;;;-148.88;100.00;-17125.47;4977942;28;20022;-72
2023/08/23 00:10:56;;;;;;;11.23;7.05;;;;;;;-148.88;100.00;-17125.47;4977991;28;20437;-72
2023/08/23 00:13:22;;;;;;;9.27;6.18;;;;;;;-148.88;100.00;-17125.47;4977819;28;20505;-72
2023/08/23 00:15:47;;;;;;;12.65;6.30;;;;;;;-148.88;100.00;-17125.47;4977701;28;20041;-72
2023/08/23 00:18:13;;;;;;;10.20;7.10;;;;;;;-148.88;100.00;-17125.47;4977372;28;20025;-72
2023/08/23 00:20:40;;;;;;;9.30;7.00;;;;;;;-148.88;100.00;-17125.47;4977520;28;20027;-72
2023/08/23 00:23:06;;;;;;;8.05;7.18;;;;;;;-148.88;100.00;-17125.47;4977284;28;20496;-72
2023/08/23 00:25:31;;;;;;;9.45;6.63;;;;;;;-148.88;100.00;-17125.47;4977214;28;20023;-72
2023/08/23 00:27:57;;;;;;;10.13;6.82;;;;;;;-148.88;100.00;-17125.47;4975851;28;20023;-72
2023/08/23 00:30:22;;;;;;;9.57;5.68;;;;;;;-148.88;100.00;-17125.47;4977192;28;20406;-72
2023/08/23 00:32:47;;;;;;;9.10;6.55;;;;;;;-148.88;100.00;-17125.47;4975846;28;20023;-71
2023/08/23 00:35:13;;;;;;;10.32;6.65;;;;;;;-148.88;100.00;-17125.47;4977320;28;20022;-72
2023/08/23 00:37:38;;;;;;;9.25;6.22;;;;;;;-148.88;100.00;-17125.47;4977190;28;20073;-72
2023/08/23 00:40:05;;;;;;;8.35;6.40;;;;;;;-148.88;100.00;-17125.47;4977384;28;20035;-72
2023/08/23 00:42:31;;;;;;;11.50;6.30;;;;;;;-148.88;100.00;-17125.47;4977135;28;20034;-72
2023/08/23 00:44:56;;;;;;;9.73;5.90;;;;;;;-148.88;100.00;-17125.47;4975819;28;20023;-72
2023/08/23 00:47:22;;;;;;;9.90;6.13;;;;;;;-148.88;100.00;-17125.47;4976772;28;20026;-72
2023/08/23 00:49:47;;;;;;;9.52;6.28;;;;;;;-148.88;100.00;-17125.47;4976643;28;20101;-72
2023/08/23 00:52:14;;;;;;;8.57;6.70;;;;;;;-148.88;100.00;-17125.47;4976768;28;20122;-72
2023/08/23 00:54:40;;;;;;;7.63;5.60;;;;;;;-148.88;100.00;-17125.47;4977102;28;20500;-72
2023/08/23 00:57:07;;;;;;;7.85;6.07;;;;;;;-148.88;100.00;-17125.47;4976649;28;20097;-72
2023/08/23 00:59:32;;;;;;;8.13;5.97;;;;;;;-148.88;100.00;-17125.47;4976472;28;20050;-72
2023/08/23 01:01:58;;;;;;;8.93;6.22;;;;;;;-148.88;100.00;-17125.47;4976546;28;20043;-72
2023/08/23 01:04:24;;;;;;;8.77;6.28;;;;;;;-148.88;100.00;-17125.47;4976570;28;20077;-72
2023/08/23 01:07:03;;;;;;;12.25;6.82;;;;;;;-148.88;100.00;-17125.47;4976294;28;20394;-72
2023/08/23 01:09:40;;;;;;;10.25;6.70;;;;;;;-148.88;100.00;-17125.47;4976576;28;20031;-72
2023/08/23 01:12:10;;;;;;;10.32;6.32;;;;;;;-148.88;100.00;-17125.47;4975091;28;20035;-72
2023/08/23 01:14:56;;;;;;;8.57;6.80;;;;;;;-148.88;100.00;-17125.47;4977111;28;20082;-73
2023/08/23 01:17:23;;;;;;;9.38;6.43;;;;;;;-148.88;100.00;-17125.47;4974686;28;20038;-71
2023/08/23 01:19:50;;;;;;;9.43;7.75;;;;;;;-148.88;100.00;-17125.47;4974378;28;20069;-72
2023/08/23 01:22:20;;;;;;;11.40;7.07;;;;;;;-148.88;100.00;-17125.47;4975280;28;20034;-71
2023/08/23 01:24:47;;;;;;;13.15;7.32;;;;;;;-148.88;100.00;-17125.47;4975567;28;20109;-71
2023/08/23 01:27:12;;;;;;;10.18;7.00;;;;;;;-148.88;100.00;-17125.47;4974654;28;20027;-72
2023/08/23 01:29:38;;;;;;;10.27;7.50;;;;;;;-148.88;100.00;-17125.47;4973507;28;20026;-72
2023/08/23 01:32:29;;;;;;;10.73;6.80;;;;;;;-148.88;100.00;-17125.47;4974844;28;20030;-72
2023/08/23 01:35:08;;;;;;;9.27;6.47;;;;;;;-148.88;100.00;-17125.47;4968098;28;20042;-72
2023/08/23 01:37:38;;;;;;;9.07;7.32;;;;;;;-148.88;100.00;-17125.47;4975806;28;20552;-72
2023/08/23 01:40:06;;;;;;;9.27;6.82;;;;;;;-148.88;100.00;-17125.47;4976224;28;20062;-72
2023/08/23 01:42:31;;;;;;;12.38;7.25;;;;;;;-148.88;100.00;-17125.47;4974863;28;20031;-72
2023/08/23 01:44:57;;;;;;;12.45;7.20;;;;;;;-148.88;100.00;-17125.47;4976150;28;20089;-72
2023/08/23 01:47:22;;;;;;;10.38;6.90;;;;;;;-148.88;100.00;-17125.47;4975775;28;20031;-72
2023/08/23 01:49:48;;;;;;;10.05;7.60;;;;;;;-148.88;100.00;-17125.47;4976237;28;20030;-72
2023/08/23 01:52:13;;;;;;;9.98;6.57;;;;;;;-148.88;100.00;-17125.47;4975821;28;20027;-72
2023/08/23 01:54:38;;;;;;;10.10;6.80;;;;;;;-148.88;100.00;-17125.47;4975522;28;20508;-72
2023/08/23 01:57:04;;;;;;;9.90;6.90;;;;;;;-148.88;100.00;-17125.47;4974360;28;20482;-72
2023/08/23 01:59:29;;;;;;;10.95;6.68;;;;;;;-148.88;100.00;-17125.47;4976099;28;20561;-72
2023/08/23 02:01:55;;;;;;;9.95;6.95;;;;;;;-148.88;100.00;-17125.47;4975989;28;20031;-72
2023/08/23 02:04:20;;;;;;;12.10;7.00;;;;;;;-148.88;100.00;-17125.47;4975699;28;20494;-73
2023/08/23 02:06:45;;;;;;;9.40;6.50;;;;;;;-148.88;100.00;-17125.47;4976114;28;20081;-71
2023/08/23 02:09:11;;;;;;;8.95;6.65;;;;;;;-148.88;100.00;-17125.47;4976855;28;20058;-72
2023/08/23 02:11:37;;;;;;;11.05;6.95;;;;;;;-148.88;100.00;-17125.47;4978749;28;20027;-72
2023/08/23 02:14:03;;;;;;;9.43;6.45;;;;;;;-148.88;100.00;-17125.47;4979830;28;20445;-72
2023/08/23 02:16:28;;;;;;;12.25;7.53;;;;;;;-148.88;100.00;-17125.47;4979780;28;20022;-72
2023/08/23 02:18:54;;;;;;;10.07;7.15;;;;;;;-148.88;100.00;-17125.47;4978806;28;20078;-72
2023/08/23 02:21:20;;;;;;;12.40;8.02;;;;;;;-148.88;100.00;-17125.47;4979488;28;20027;-72
2023/08/23 02:23:45;;;;;;;11.05;7.70;;;;;;;-148.88;100.00;-17125.47;4979157;28;20030;-72
2023/08/23 02:26:10;;;;;;;10.57;8.05;;;;;;;-148.88;100.00;-17125.47;4979805;28;20026;-72
2023/08/23 02:28:36;;;;;;;12.15;8.75;;;;;;;-148.88;100.00;-17125.47;4979475;28;20029;-72
2023/08/23 02:31:03;;;;;;;11.07;8.13;;;;;;;-148.88;100.00;-17125.47;4979337;28;20034;-72
2023/08/23 02:33:28;;;;;;;13.55;7.90;;;;;;;-148.88;100.00;-17125.47;4979129;28;20034;-72
2023/08/23 02:35:54;;;;;;;13.60;7.65;;;;;;;-148.88;100.00;-17125.47;4977777;28;20027;-72
2023/08/23 02:38:19;;;;;;;11.68;7.03;;;;;;;-148.88;100.00;-17125.47;4979027;28;20027;-72
2023/08/23 02:40:44;;;;;;;11.40;7.85;;;;;;;-148.88;100.00;-17125.47;4978637;28;20049;-73
2023/08/23 02:43:10;;;;;;;11.88;8.05;;;;;;;-148.88;100.00;-17125.47;4979185;28;20034;-72
2023/08/23 02:45:42;;;;;;;15.52;8.15;;;;;;;-148.88;100.00;-17125.47;4978807;28;20026;-72
2023/08/23 02:48:11;;;;;;;11.43;7.10;;;;;;;-148.88;100.00;-17125.47;4977578;28;20457;-72
2023/08/23 02:50:36;;;;;;;8.95;7.65;;;;;;;-148.88;100.00;-17125.47;4977324;28;20504;-72
2023/08/23 02:53:02;;;;;;;13.05;8.02;;;;;;;-148.88;100.00;-17125.47;4978773;28;20027;-72
2023/08/23 02:55:27;;;;;;;10.65;8.48;;;;;;;-148.88;100.00;-17125.47;4977134;28;20030;-72
2023/08/23 02:57:53;;;;;;;11.30;9.00;;;;;;;-148.88;100.00;-17125.47;4978329;28;20027;-72
2023/08/23 03:00:18;;;;;;;12.63;8.57;;;;;;;-148.88;100.00;-17125.47;4978371;28;20030;-72
2023/08/23 03:02:44;;;;;;;12.60;8.15;;;;;;;-148.88;100.00;-17125.47;4985235;23;20035;-84
2023/08/23 03:05:09;;;;;;;11.57;7.90;;;;;;;-148.88;100.00;-17125.47;4975823;28;20023;-84
2023/08/23 03:07:34;;;;;;;14.40;8.05;;;;;;;-148.88;100.00;-17125.47;4960562;28;20054;-84
2023/08/23 03:10:06;;;;;;;12.23;8.65;;;;;;;-148.88;100.00;-17125.47;4959860;28;20034;-85
2023/08/23 03:12:31;;;;;;;12.82;8.30;;;;;;;-148.88;100.00;-17125.47;4966323;28;20569;-83
2023/08/23 03:15:10;;;;;;;10.38;7.45;;;;;;;-148.88;100.00;-17125.47;5019799;22;20062;-83
2023/08/23 03:17:42;;;;;;;11.05;8.45;;;;;;;-148.88;100.00;-17125.47;5005556;28;20041;-84
2023/08/23 03:20:19;;;;;;;12.55;8.77;;;;;;;-148.88;100.00;-17125.47;5003622;28;20034;-83
2023/08/23 03:22:44;;;;;;;12.85;8.50;;;;;;;-148.88;100.00;-17125.47;5004429;28;20042;-84
2023/08/23 03:25:18;;;;;;;9.70;7.93;;;;;;;-148.88;100.00;-17125.47;5004912;28;20045;-83
2023/08/23 03:27:55;;;;;;;10.07;7.50;;;;;;;-148.88;100.00;-17125.47;5004719;28;20485;-84
2023/08/23 03:30:29;;;;;;;13.38;8.40;;;;;;;-148.88;100.00;-17125.47;5004935;28;20030;-83
2023/08/23 03:32:55;;;;;;;11.70;9.20;;;;;;;-148.88;100.00;-17125.47;5005045;28;20037;-84
2023/08/23 03:35:20;;;;;;;11.32;9.00;;;;;;;-148.88;100.00;-17125.47;5004616;28;20022;-82
2023/08/23 03:37:45;;;;;;;12.50;9.57;;;;;;;-148.88;100.00;-17125.47;5005694;28;20129;-84
2023/08/23 03:40:11;;;;;;;16.02;9.35;;;;;;;-148.88;100.00;-17125.47;5004605;28;20022;-84
2023/08/23 03:42:42;;;;;;;11.23;8.68;;;;;;;-148.88;100.00;-17125.47;4997442;28;20042;-82
2023/08/23 03:45:08;;;;;;;12.13;9.27;;;;;;;-148.88;100.00;-17125.47;4999985;28;20027;-83
2023/08/23 03:47:33;;;;;;;12.20;8.80;;;;;;;-148.88;100.00;-17125.47;5002236;28;20120;-82
2023/08/23 03:50:14;;;;;;;13.00;9.15;;;;;;;-148.88;100.00;-17125.47;5004895;28;20026;-83
2023/08/23 03:52:46;;;;;;;12.98;9.07;;;;;;;-148.88;100.00;-17125.47;5006352;28;20022;-83
2023/08/23 03:55:11;;;;;;;12.20;9.25;;;;;;;-148.88;100.00;-17125.47;5004474;28;20548;-83
2023/08/23 03:57:37;;;;;;;12.13;9.52;;;;;;;-148.88;100.00;-17125.47;5005532;28;20030;-83
2023/08/23 04:00:29;;;;;;;11.80;9.40;;;;;;;-148.88;100.00;-17125.47;5006390;28;20029;-83
2023/08/23 04:03:01;;;;;;;12.50;8.95;;;;;;;-148.88;100.00;-17125.47;5005478;28;20421;-82
2023/08/23 04:05:29;;;;;;;12.52;9.73;;;;;;;-148.88;100.00;-17125.47;5005522;28;20022;-82
2023/08/23 04:07:55;;;;;;;11.73;9.10;;;;;;;-148.88;100.00;-17125.47;5003749;28;20551;-82
2023/08/23 04:10:32;;;;;;;12.48;9.85;;;;;;;-148.88;100.00;-17125.47;5006698;28;20018;-81
2023/08/23 04:13:00;;;;;;;12.30;9.55;;;;;;;-148.88;100.00;-17125.47;5004351;28;20041;-83
2023/08/23 04:15:31;;;;;;;16.45;9.93;;;;;;;-148.88;100.00;-17125.47;5003808;28;20030;-82
2023/08/23 04:17:57;;;;;;;12.05;8.95;;;;;;;-148.88;100.00;-17125.47;5005916;28;20038;-81
2023/08/23 04:20:25;;;;;;;12.95;9.27;;;;;;;-148.88;100.00;-17125.47;4998282;28;20045;-81
2023/08/23 04:22:59;;;;;;;11.82;8.38;;;;;;;-148.88;100.00;-17125.47;5004253;28;20093;-82
2023/08/23 04:25:29;;;;;;;14.13;9.18;;;;;;;-148.88;100.00;-17125.47;5006345;28;20065;-83
2023/08/23 04:27:55;;;;;;;15.27;10.55;;;;;;;-148.88;100.00;-17125.47;5008070;28;20026;-82
2023/08/23 04:30:32;;;;;;;17.30;11.00;;;;;;;-148.88;100.00;-17125.47;5009356;28;20064;-82
2023/08/23 04:33:18;;;;;;;16.60;12.90;;;;;;;-148.88;100.00;-17125.47;5007724;28;20023;-82
2023/08/23 04:35:58;;;;;;;17.88;12.70;;;;;;;-148.88;100.00;-17125.47;5008457;28;20026;-82
2023/08/23 04:38:26;;;;;;;16.17;13.45;;;;;;;-148.88;100.00;-17125.47;5009284;28;20407;-82
2023/08/23 04:41:13;;;;;;;22.33;14.52;;;;;;;-148.88;100.00;-17125.47;5006824;28;20027;-82
2023/08/23 04:43:44;;;;;;;16.75;14.00;;;;;;;-148.88;100.00;-17125.47;5008029;28;20038;-83
2023/08/23 04:46:10;;;;;;;18.27;14.18;;;;;;;-148.88;100.00;-17125.47;5006577;28;20042;-82
2023/08/23 04:48:54;;;;;;;17.92;15.50;;;;;;;-148.88;100.00;-17125.47;5006813;28;20037;-83
2023/08/23 04:51:44;;;;;;;18.13;14.10;;;;;;;-148.88;100.00;-17125.47;5006252;28;20033;-83
2023/08/23 04:54:09;;;;;;;18.67;13.90;;;;;;;-148.88;100.00;-17125.47;4991135;28;20042;-83
2023/08/23 04:56:35;;;;;;;19.40;13.10;;;;;;;-148.88;100.00;-17125.47;5005791;28;20033;-81
2023/08/23 04:59:00;;;;;;;19.75;14.05;;;;;;;-148.88;100.00;-17125.47;4998771;28;20036;-82
2023/08/23 05:01:25;;;;;;;17.02;12.70;;;;;;;-148.88;100.00;-17125.47;5002519;28;20026;-82
2023/08/23 05:04:01;;;;;;;19.45;14.02;;;;;;;-148.88;100.00;-17125.47;5005489;28;20026;-83
2023/08/23 05:06:31;;;;;;;17.45;13.65;;;;;;;-148.88;100.00;-17125.47;5001936;28;20132;-84
2023/08/23 05:08:57;;;;;;;16.65;13.55;;;;;;;-148.88;100.00;-17125.47;5004259;28;20026;-83
2023/08/23 05:11:37;;;;;;;20.27;14.75;;;;;;;-148.88;100.00;-17125.47;5006874;28;20050;-84
2023/08/23 05:14:06;;;;;;;23.33;16.23;;;;;;;-148.88;100.00;-17125.47;5004724;28;20109;-82
2023/08/23 05:16:34;;;;;;;20.00;15.13;;;;;;;-148.88;100.00;-17125.47;5003365;28;20046;-83
2023/08/23 05:18:59;;;;;;;18.52;15.23;;;;;;;-148.88;100.00;-17125.47;5004368;28;20466;-82
2023/08/23 05:21:24;;;;;;;17.90;15.00;;;;;;;-148.88;100.00;-17125.47;5000658;28;20030;-82
2023/08/23 05:24:02;;;;;;;20.52;15.13;;;;;;;-148.88;100.00;-17125.47;4998701;28;20037;-84
2023/08/23 05:26:27;;;;;;;18.83;15.50;;;;;;;-148.88;100.00;-17125.47;5000241;28;20027;-83
2023/08/23 05:28:52;;;;;;;18.60;16.25;;;;;;;-148.88;100.00;-17125.47;4999927;28;20085;-83
2023/08/23 05:31:18;;;;;;;18.58;16.58;;;;;;;-148.88;100.00;-17125.47;5002628;28;20026;-85
2023/08/23 05:33:43;;;;;;;21.05;16.40;;;;;;;-148.88;100.00;-17125.47;5001998;28;20436;-83
2023/08/23 05:36:08;;;;;;;21.38;17.20;;;;;;;-148.88;100.00;-17125.47;4998527;28;20448;-84
2023/08/23 05:38:34;;;;;;;21.40;17.65;;;;;;;-148.88;100.00;-17125.47;4997043;28;20088;-84
2023/08/23 05:40:59;;;;;;;18.30;16.40;;;;;;;-148.88;100.00;-17125.47;4999695;28;20073;-85
2023/08/23 05:43:25;;;;;;;20.20;17.60;;;;;;;-148.88;100.00;-17125.47;5001295;28;20030;-84
2023/08/23 05:45:57;;;;;;;18.45;16.30;;;;;;;-148.88;100.00;-17125.47;5001689;28;20023;-84
2023/08/23 05:48:23;;;;;;;20.08;17.90;;;;;;;-148.88;100.00;-17125.47;5001414;28;20026;-85
2023/08/23 05:50:48;;;;;;;20.40;17.42;;;;;;;-148.88;100.00;-17125.47;5002436;28;20034;-85
2023/08/23 05:53:19;;;;;;;21.30;16.20;;;;;;;-148.88;100.00;-17125.47;5002990;28;20109;-83
2023/08/23 05:55:49;;;;;;;19.95;15.57;;;;;;;-148.88;100.00;-17125.47;5002008;28;20022;-85
2023/08/23 05:58:18;;;;;;;18.42;14.68;;;;;;;-148.88;100.00;-17125.47;4996390;28;20027;-84
2023/08/23 06:00:48;;;;;;;18.83;14.70;;;;;;;-148.88;100.00;-17125.47;4983328;28;20454;-83
2023/08/23 06:03:16;;;;;;;19.10;15.07;;;;;;;-148.88;100.00;-17125.47;4983653;28;20034;-82
2023/08/23 06:05:43;;;;;;;18.33;14.15;;;;;;;-148.88;100.00;-17125.47;4981619;28;20461;-84
2023/08/23 06:08:09;;;;;;;21.15;14.18;;;;;;;-148.88;100.00;-17125.47;4983012;28;20027;-87
2023/08/23 06:10:34;;;;;;;19.17;13.60;;;;;;;-148.88;100.00;-17125.47;4982740;28;20130;-84
2023/08/23 06:13:00;;;;;;;15.75;14.05;;;;;;;-148.88;100.00;-17125.47;4981330;28;20039;-83
2023/08/23 06:15:26;;;;;;;17.00;14.75;;;;;;;-148.88;100.00;-17125.47;4974834;28;20093;-83
2023/08/23 06:17:53;;;;;;;19.35;13.77;;;;;;;-148.88;100.00;-17125.47;4976775;28;20031;-83
2023/08/23 06:20:19;;;;;;;21.83;15.13;;;;;;;-148.88;100.00;-17125.47;4979355;28;20023;-84
2023/08/23 06:22:44;;;;;;;23.92;14.82;;;;;;;-148.88;100.00;-17125.47;4981629;28;20027;-85
2023/08/23 06:25:09;;;;;;;19.23;15.32;;;;;;;-148.88;100.00;-17125.47;4981575;28;20514;-85
2023/08/23 06:27:35;;;;;;;18.52;14.93;;;;;;;-148.88;100.00;-17125.47;4983890;28;20494;-85
2023/08/23 06:30:02;;;;;;;19.92;14.77;;;;;;;-148.88;100.00;-17125.47;4982302;28;20394;-85
2023/08/23 06:32:27;;;;;;;19.35;14.93;;;;;;;-148.88;100.00;-17125.47;4982110;28;20029;-86
2023/08/23 06:34:53;;;;;;;20.42;14.38;;;;;;;-148.88;100.00;-17125.47;4982314;28;20075;-86
2023/08/23 06:37:18;;;;;;;16.83;12.65;;;;;;;-148.88;100.00;-17125.47;4984103;28;20041;-85
2023/08/23 06:39:44;;;;;;;20.15;14.10;;;;;;;-148.88;100.00;-17125.47;4979746;28;20031;-84
2023/08/23 06:42:09;;;;;;;15.60;14.10;;;;;;;-148.88;100.00;-17125.47;4997429;28;20026;-85
2023/08/23 06:44:34;;;;;;;17.38;14.43;;;;;;;-148.88;100.00;-17125.47;4998864;28;20085;-86
2023/08/23 06:47:00;;;;;;;16.63;14.20;;;;;;;-148.88;100.00;-17125.47;4998838;28;20536;-85
2023/08/23 06:49:25;;;;;;;16.25;13.43;;;;;;;-148.88;100.00;-17125.47;4998112;28;20482;-85
2023/08/23 06:51:50;;;;;;;22.55;15.85;;;;;;;-148.88;100.00;-17125.47;4976245;28;20084;-85
2023/08/23 06:54:16;;;;;;;20.70;16.38;;;;;;;-148.88;100.00;-17125.47;4975267;28;20102;-85
2023/08/23 06:56:41;;;;;;;18.67;15.57;;;;;;;-148.88;100.00;-17125.47;4981187;28;20025;-85
2023/08/23 06:59:07;;;;;;;22.30;17.25;;;;;;;-148.88;100.00;-17125.47;4983327;28;20102;-85
2023/08/23 07:01:32;;;;;;;21.48;18.35;;;;;;;-148.88;100.00;-17125.47;4983539;28;20033;-85
2023/08/23 07:03:57;;;;;;;32.08;26.85;;;;;;;-148.88;100.00;-17125.47;4982991;28;20038;-85
2023/08/23 07:06:23;;;;;;;32.20;28.42;;;;;;;-148.88;100.00;-17125.47;4981688;28;20077;-84
2023/08/23 07:08:48;;;;;;;38.78;29.48;;;;;;;-148.88;100.00;-17125.47;4983116;28;20443;-85
2023/08/23 07:11:13;;;;;;;33.25;27.17;;;;;;;-148.88;100.00;-17125.47;4983798;28;20392;-85
2023/08/23 07:13:39;;;;;;;35.17;28.50;;;;;;;-148.88;100.00;-17125.47;4980688;28;20490;-86
2023/08/23 07:16:05;;;;;;;31.95;27.77;;;;;;;-148.88;100.00;-17125.47;4982381;28;20035;-85
2023/08/23 07:18:30;;;;;;;31.33;25.98;;;;;;;-148.88;100.00;-17125.47;4983496;28;20109;-83
2023/08/23 07:20:56;;;;;;;31.23;24.67;;;;;;;-148.88;100.00;-17125.47;4984330;28;20074;-85
2023/08/23 07:23:41;;;;;;;32.78;27.52;;;;;;;-148.88;100.00;-17125.47;4984450;28;20041;-85
2023/08/23 07:26:10;;;;;;;32.63;25.33;;;;;;;-148.88;100.00;-17125.47;4985129;28;20058;-85
2023/08/23 07:28:40;;;;;;;30.98;24.08;;;;;;;-148.88;100.00;-17125.47;4985172;28;20034;-84
2023/08/23 07:31:12;;;;;;;29.00;23.20;;;;;;;-148.88;100.00;-17125.47;4978958;28;20394;-85
2023/08/23 07:33:37;;;;;;;27.58;22.60;;;;;;;-148.88;100.00;-17125.47;4980924;28;20027;-86
2023/08/23 07:36:06;;;;;;;27.73;21.80;;;;;;;-148.88;100.00;-17125.47;4982785;28;20058;-84
2023/08/23 07:38:35;;;;;;;23.80;21.25;;;;;;;-148.88;100.00;-17125.47;4982918;28;20027;-85
2023/08/23 07:41:09;;;;;;;25.52;19.80;;;;;;;-148.88;100.00;-17125.47;4982917;28;20050;-86
2023/08/23 07:43:44;;;;;;;24.63;19.60;;;;;;;-148.88;100.00;-17125.47;4984095;28;20022;-86
2023/08/23 07:46:26;;;;;;;25.73;19.73;;;;;;;-148.88;100.00;-17125.47;4983383;28;20065;-86
2023/08/23 07:49:04;;;;;;;23.52;18.08;;;;;;;-148.88;100.00;-17125.47;4983957;28;20361;-86
2023/08/23 07:51:29;;;;;;;25.25;19.60;;;;;;;-148.88;100.00;-17125.47;4986784;28;20030;-84
2023/08/23 07:54:00;;;;;;;25.35;19.00;;;;;;;-148.88;100.00;-17125.47;4984460;28;20073;-84
2023/08/23 07:56:34;;;;;;;24.27;18.05;;;;;;;-148.88;100.00;-17125.47;4984217;28;20462;-85
2023/08/23 07:59:08;;;;;;;21.85;18.13;;;;;;;-148.88;100.00;-17125.47;4982158;28;20030;-85
2023/08/23 08:01:54;;;;;;;24.65;18.65;;;;;;;-148.88;100.00;-17125.47;4981859;28;20023;-84
2023/08/23 08:04:35;;;;;;;21.98;18.40;;;;;;;-148.88;100.00;-17125.47;4982907;28;20089;-85
2023/08/23 08:07:06;;;;;;;25.63;18.58;;;;;;;-148.88;100.00;-17125.47;4982429;28;20521;-84
2023/08/23 08:09:32;;;;;;;23.77;19.15;;;;;;;-148.88;100.00;-17125.47;4976985;28;20101;-84
2023/08/23 08:12:00;;;;;;;23.83;18.00;;;;;;;-148.88;100.00;-17125.47;4981650;28;20391;-83
2023/08/23 08:14:31;;;;;;;18.67;15.57;;;;;;;-148.88;100.00;-17125.47;4981849;28;20027;-82
2023/08/23 08:17:03;;;;;;;18.52;15.25;;;;;;;-148.88;100.00;-17125.47;4981830;28;20134;-83
2023/08/23 08:19:34;;;;;;;17.00;14.60;;;;;;;-148.88;100.00;-17125.47;4980838;28;20037;-82
2023/08/23 08:22:31;;;;;;;16.25;13.35;;;;;;;-148.88;100.00;-17125.47;4979621;28;20034;-84
2023/08/23 08:25:08;;;;;;;19.17;12.45;;;;;;;-148.88;100.00;-17125.47;4981701;28;20135;-83
2023/08/23 08:27:39;;;;;;;17.00;13.02;;;;;;;-148.88;100.00;-17125.47;4981102;28;20027;-82
2023/08/23 08:30:08;;;;;;;15.85;11.68;;;;;;;-148.88;100.00;-17125.47;4984075;28;20023;-85
2023/08/23 08:32:34;;;;;;;13.90;11.02;;;;;;;-148.88;100.00;-17125.47;4984256;28;20121;-85
2023/08/23 08:35:10;;;;;;;15.35;11.85;;;;;;;-148.88;100.00;-17125.47;4984879;28;20034;-85
2023/08/23 08:37:39;;;;;;;16.48;12.13;;;;;;;-148.88;100.00;-17125.47;4981285;28;20554;-85
2023/08/23 08:40:11;;;;;;;16.10;11.10;;;;;;;-148.88;100.00;-17125.47;4981026;28;20466;-84
2023/08/23 08:43:01;;;;;;;13.55;9.88;;;;;;;-148.88;100.00;-17125.47;4980669;28;20387;-84
2023/08/23 08:46:01;;;;;;;15.60;9.07;;;;;;;-148.88;99.97;-17125.47;4981838;28;20035;-82
2023/08/23 08:48:38;;;;;;;13.63;8.93;;;;;;;-148.88;100.00;-17125.47;4978617;28;20028;-83
2023/08/23 08:51:18;;;;;;;11.77;8.60;;;;;;;-148.88;100.00;-17125.47;4980582;28;20038;-83
2023/08/23 08:54:06;;;;;;;12.40;7.82;;;;;;;-148.88;100.00;-17125.47;4979762;28;20058;-83
2023/08/23 08:56:42;;;;;;;11.65;7.15;;;;;;;-148.88;100.00;-17125.47;4980643;28;20050;-82
2023/08/23 08:59:23;;;;;;;12.40;8.40;;;;;;;-148.88;98.10;-17125.47;4979722;28;20339;-83
2023/08/23 09:01:56;;;;;;;12.48;7.88;;;;;;;-148.88;97.75;-17125.47;4979568;28;20038;-84
2023/08/23 09:04:30;;;;;;;13.20;8.10;;;;;;;-148.88;98.28;-17125.47;4979081;28;20027;-83
2023/08/23 09:07:01;;;;;;;14.18;8.18;;;;;;;-148.88;97.13;-17125.47;4979069;28;20389;-84
2023/08/23 09:09:42;;;;;;;14.77;7.50;;;;;;;-148.88;97.37;-17125.47;4977960;28;20106;-84
2023/08/23 09:12:08;;;;;;;11.75;6.57;;;;;;;-148.88;97.10;-17125.47;4978522;28;20023;-82
2023/08/23 09:14:47;;;;;;;12.13;6.28;;;;;;;-148.88;98.09;-17125.47;4978966;28;20030;-82
2023/08/23 09:17:25;;;;;;;11.00;6.70;;;;;;;-148.88;98.72;-17125.47;4975952;28;20042;-83
2023/08/23 09:20:12;;;;;;;9.57;6.38;;;;;;;-148.88;96.42;-17125.47;4976147;28;20548;-83
2023/08/23 09:22:40;;;;;;;9.75;5.68;;;;;;;-148.88;94.67;-17125.47;4977361;28;20073;-84
2023/08/23 09:25:14;;;;;;;10.43;7.10;;;;;;;-148.88;91.59;-17125.47;4977795;28;20027;-84
2023/08/23 09:27:49;;;;;;;11.95;6.78;;;;;;;-148.88;94.33;-17125.47;4978199;28;20055;-82
2023/08/23 09:30:15;;;;;;;7.88;4.05;;;;;;;-148.88;88.92;-17125.47;4977562;28;20061;-84
2023/08/23 09:32:51;;;;;;;6.85;3.38;;;;;;;-148.88;87.37;-17125.47;4978405;28;20031;-82
2023/08/23 09:35:39;;;;;;;5.93;3.05;;;;;;;-148.88;87.04;-17125.47;4976851;28;20452;-82
2023/08/23 09:38:10;;;;;;;5.15;3.25;;;;;;;-148.88;85.74;-17125.47;4976332;28;20061;-82
2023/08/23 09:40:38;;;;;;;5.72;3.13;;;;;;;-148.88;83.58;-17125.47;4976817;28;20029;-83
2023/08/23 09:43:13;;;;;;;4.75;2.40;;;;;;;-148.88;80.86;-17125.47;4976387;28;20030;-83
2023/08/23 09:46:03;;;;;;;5.18;2.67;;;;;;;-148.88;84.09;-17125.47;4974688;28;20398;-82
2023/08/23 09:48:38;;;;;;;6.28;3.17;;;;;;;-148.88;85.84;-17125.47;4966972;28;20454;-82
2023/08/23 09:51:11;;;;;;;5.95;3.60;;;;;;;-148.88;84.73;-17125.47;4975473;28;20478;-83
2023/08/23 09:53:52;;;;;;;5.50;3.42;;;;;;;-148.88;87.58;-17125.47;4974648;28;20038;-84
2023/08/23 09:56:32;;;;;;;8.30;3.92;;;;;;;-148.88;85.49;-17125.47;4974874;28;20038;-82
2023/08/23 09:59:10;;;;;;;6.28;3.10;;;;;;;-148.88;94.38;-17125.47;4975063;28;20082;-83
2023/08/23 10:02:08;;;;;;;6.22;3.53;;;;;;;-148.88;81.14;-17125.47;4975607;28;20026;-83
2023/08/23 10:04:44;;;;;;;6.55;3.72;;;;;;;-148.88;84.50;-17125.47;4974327;28;20027;-83
2023/08/23 10:07:15;;;;;;;6.50;3.75;;;;;;;-148.88;82.15;-17125.47;4973992;28;20118;-83
2023/08/23 10:09:41;;;;;;;4.10;3.15;;;;;;;-148.88;79.58;-17125.47;4974064;28;20031;-84
2023/08/23 10:12:25;;;;;;;7.47;3.70;;;;;;;-148.88;79.52;-17125.47;4974509;28;20478;-83
2023/08/23 10:14:58;;;;;;;7.82;3.47;;;;;;;-148.88;81.41;-17125.47;4973215;28;20033;-82
2023/08/23 10:17:59;;;;;;;6.30;3.50;;;;;;;-148.88;76.22;-17125.47;4972385;28;20039;-83
2023/08/23 10:20:30;;;;;;;7.78;3.05;;;;;;;-148.88;77.22;-17125.47;4972230;28;20494;-83
2023/08/23 10:23:07;;;;;;;5.43;3.53;;;;;;;-148.88;76.56;-17125.47;4979608;28;20046;-85
2023/08/23 10:25:35;;;;;;;7.03;3.08;;;;;;;-148.88;76.20;-17125.47;4984628;28;20094;-82
2023/08/23 10:28:04;;;;;;;5.35;3.38;;;;;;;-148.88;71.23;-17125.47;4984396;28;20031;-84
2023/08/23 10:30:52;;;;;;;5.45;2.92;;;;;;;-148.88;68.54;-17125.47;4986613;28;20517;-84
2023/08/23 10:33:22;;;;;;;6.13;2.80;;;;;;;-148.88;71.86;-17125.47;4989096;28;20058;-84
2023/08/23 10:35:47;;;;;;;5.30;3.17;;;;;;;-148.88;74.04;-17125.47;4992709;28;20086;-83
2023/08/23 10:38:32;;;;;;;5.28;3.53;;;;;;;-148.88;74.53;-17125.47;4988719;28;20031;-85
2023/08/23 10:41:15;;;;;;;6.00;3.80;;;;;;;-148.88;75.14;-17125.47;4989296;28;20037;-84
2023/08/23 10:43:42;;;;;;;;;;;;;;;-148.88;74.53;-17125.47;4978542;28;20343;-83
2023/08/23 10:46:08;;;;;;;4.43;3.17;;;;;;;-148.88;76.28;-17125.47;4982434;23;19922;-77
2023/08/23 10:48:34;;;;;;;9.05;3.55;;;;;;;-148.88;74.68;-17125.47;4976109;28;20029;-77
2023/08/23 10:51:01;;;;;;;8.27;3.17;;;;;;;-148.88;70.19;-17125.47;4976168;28;20026;-77
2023/08/23 10:53:26;;;;;;;4.80;2.40;;;;;;;-148.88;70.18;-17125.47;4974771;28;20031;-77
2023/08/23 10:55:52;;;;;;;5.20;2.10;;;;;;;-148.88;69.42;-17125.47;4976051;28;20018;-77
2023/08/23 10:58:17;;;;;;;4.20;2.20;;;;;;;-148.88;69.86;-17125.47;4975847;28;20366;-77
2023/08/23 11:00:45;;;;;;;3.67;1.90;;;;;;;-148.88;68.65;-17125.47;4974583;28;20098;-77
2023/08/23 11:03:12;;;;;;;4.07;2.20;;;;;;;-148.88;65.73;-17125.47;4974634;28;20365;-77
2023/08/23 11:05:37;;;;;;;4.05;2.22;;;;;;;-148.88;69.22;-17125.47;4974694;28;20034;-77
2023/08/23 11:08:03;;;;;;;3.95;2.60;;;;;;;-148.88;65.64;-17125.47;4974568;28;20033;-76